Time;durP1;ratioP1;P1;durP2;ratioP2;P2;SDS_P1;SDS_P2;PMS_P1;PMS_P2;Temp;Humidity;BMP_temperature;BMP_pressure;BME280_temperature;BME280_humidity;BME280_pressure;Samples;Min_cycle;Max_cycle;Signal;HPM_P1;HPM_P2
2023/12/25 00:01:19;;;;;;;0.00;0.00;;;;;;;11.42;100.00;99726.84;6090587;23;20299;-87
2023/12/25 00:03:45;;;;;;;0.00;0.00;;;;;;;11.42;100.00;99732.81;6090242;23;20041;-87
2023/12/25 00:06:10;;;;;;;0.00;0.00;;;;;;;11.42;100.00;99734.59;6089788;23;20441;-88
2023/12/25 00:08:35;;;;;;;0.75;0.00;;;;;;;11.53;100.00;99737.19;6090436;23;20002;-88
2023/12/25 00:11:01;;;;;;;0.98;0.00;;;;;;;11.50;100.00;99742.59;6091072;23;20002;-88
2023/12/25 00:13:26;;;;;;;0.52;0.00;;;;;;;11.45;100.00;99753.28;6091753;23;20085;-89
2023/12/25 00:15:51;;;;;;;0.40;0.10;;;;;;;11.48;100.00;99741.88;6091198;23;20433;-88
2023/12/25 00:18:17;;;;;;;0.65;0.00;;;;;;;11.52;100.00;99738.16;6091370;23;20006;-89
2023/12/25 00:20:42;;;;;;;0.28;0.00;;;;;;;11.43;100.00;99741.41;6091571;23;20011;-88
2023/12/25 00:23:08;;;;;;;0.47;0.00;;;;;;;11.48;100.00;99741.88;6091307;23;20031;-88
2023/12/25 00:25:33;;;;;;;0.00;0.00;;;;;;;11.35;100.00;99747.94;6091458;23;20003;-91
2023/12/25 00:27:59;;;;;;;0.10;0.00;;;;;;;11.47;100.00;99755.75;6091778;23;20085;-90
2023/12/25 00:30:24;;;;;;;0.50;0.17;;;;;;;11.42;100.00;99745.75;6091337;23;20006;-90
2023/12/25 00:32:49;;;;;;;0.30;0.00;;;;;;;11.41;100.00;99736.34;6091279;23;20010;-90
2023/12/25 00:35:15;;;;;;;0.65;0.10;;;;;;;11.44;100.00;99746.47;6091126;23;20007;-90
2023/12/25 00:37:40;;;;;;;0.25;0.00;;;;;;;11.40;100.00;99724.34;6091443;23;20003;-90
2023/12/25 00:40:06;;;;;;;0.47;0.00;;;;;;;11.40;100.00;99721.78;6090277;23;20025;-89
2023/12/25 00:42:32;;;;;;;1.27;0.00;;;;;;;11.35;100.00;99731.63;6087352;23;20026;-90
2023/12/25 00:44:57;;;;;;;0.05;0.00;;;;;;;11.34;100.00;99724.81;6091219;23;20022;-90
2023/12/25 00:47:22;;;;;;;0.00;0.00;;;;;;;11.42;100.00;99722.50;6089959;23;20007;-90
2023/12/25 00:49:48;;;;;;;0.13;0.00;;;;;;;11.38;100.00;99723.63;6091366;23;20088;-90
2023/12/25 00:52:17;;;;;;;0.40;0.00;;;;;;;11.44;100.00;99725.78;6091235;23;20333;-90
2023/12/25 00:54:43;;;;;;;0.17;0.03;;;;;;;11.43;100.00;99734.47;6091287;23;20022;-90
2023/12/25 00:57:09;;;;;;;0.98;0.17;;;;;;;11.39;100.00;99740.81;6089515;23;20029;-91
2023/12/25 00:59:34;;;;;;;0.75;0.10;;;;;;;11.34;100.00;99735.97;6091859;23;20321;-90
2023/12/25 01:02:00;;;;;;;0.65;0.10;;;;;;;11.42;100.00;99743.16;6091421;23;20063;-91
2023/12/25 01:04:25;;;;;;;2.22;0.08;;;;;;;11.41;100.00;99736.34;6090832;23;20033;-90
2023/12/25 01:06:50;;;;;;;0.00;0.00;;;;;;;11.41;100.00;99743.25;6089924;23;20007;-90
2023/12/25 01:09:15;;;;;;;0.05;0.00;;;;;;;11.33;100.00;99738.66;6090695;23;19999;-90
2023/12/25 01:11:42;;;;;;;0.00;0.00;;;;;;;11.44;100.00;99746.47;6091160;23;20009;-90
2023/12/25 01:14:08;;;;;;;0.00;0.00;;;;;;;11.40;100.00;99747.63;6091041;23;20002;-90
2023/12/25 01:16:35;;;;;;;0.13;0.10;;;;;;;11.33;100.00;99738.66;6090254;23;20056;-90
2023/12/25 01:19:00;;;;;;;0.22;0.05;;;;;;;11.36;100.00;99738.41;6091508;23;20003;-90
2023/12/25 01:21:25;;;;;;;0.10;0.00;;;;;;;11.29;100.00;99747.53;6091112;23;20369;-91
2023/12/25 01:23:51;;;;;;;0.10;0.10;;;;;;;11.35;100.00;99747.13;6091120;23;20045;-90
2023/12/25 01:26:18;;;;;;;0.00;0.00;;;;;;;11.30;100.00;99741.47;6092364;23;20002;-93
2023/12/25 01:28:43;;;;;;;0.10;0.10;;;;;;;11.28;100.00;99748.50;6090952;23;20068;-90
2023/12/25 01:31:11;;;;;;;1.50;0.03;;;;;;;11.33;100.00;99748.97;6090980;23;20003;-91
2023/12/25 01:33:36;;;;;;;0.45;0.05;;;;;;;11.31;100.00;99746.53;6093289;23;20005;-90
2023/12/25 01:36:02;;;;;;;1.10;0.10;;;;;;;11.37;100.00;99742.66;6091146;23;20007;-90
2023/12/25 01:38:28;;;;;;;0.75;0.10;;;;;;;11.36;100.00;99746.16;6091631;23;20425;-90
2023/12/25 01:40:53;;;;;;;1.65;0.00;;;;;;;11.31;100.00;99730.19;6092271;23;20475;-90
2023/12/25 01:43:18;;;;;;;0.30;0.10;;;;;;;11.37;100.00;99742.66;6090936;23;20060;-90
2023/12/25 01:45:44;;;;;;;0.47;0.10;;;;;;;11.41;100.00;99745.84;6090405;23;20009;-90
2023/12/25 01:48:10;;;;;;;0.00;0.00;;;;;;;11.40;100.00;99749.38;6092087;23;20003;-90
2023/12/25 01:50:35;;;;;;;0.20;0.05;;;;;;;11.42;100.00;99747.50;6092356;23;20006;-90
2023/12/25 01:53:01;;;;;;;0.32;0.00;;;;;;;11.46;100.00;99749.78;6091407;23;20037;-90
2023/12/25 01:55:27;;;;;;;2.15;0.00;;;;;;;11.38;100.00;99751.25;6090920;23;20002;-90
2023/12/25 01:57:53;;;;;;;0.10;0.00;;;;;;;11.42;100.00;99753.50;6092120;23;20056;-90
2023/12/25 02:00:18;;;;;;;0.75;0.00;;;;;;;11.43;100.00;99755.13;6092236;23;20002;-90
2023/12/25 02:02:43;;;;;;;0.30;0.00;;;;;;;11.39;100.00;99751.16;6092374;23;20326;-90
2023/12/25 02:05:09;;;;;;;0.17;0.00;;;;;;;11.38;100.00;99739.13;6092142;23;20023;-89
2023/12/25 02:07:40;;;;;;;0.17;0.00;;;;;;;11.34;100.00;99746.31;6091752;23;20002;-90
2023/12/25 02:10:08;;;;;;;2.00;0.00;;;;;;;11.38;100.00;99735.75;6090791;23;20006;-90
2023/12/25 02:12:33;;;;;;;0.00;0.00;;;;;;;11.36;100.00;99735.84;6092142;23;20006;-90
2023/12/25 02:14:59;;;;;;;0.57;0.00;;;;;;;11.37;100.00;99734.91;6092264;23;20006;-90
2023/12/25 02:17:25;;;;;;;0.45;0.10;;;;;;;11.38;100.00;99726.22;6092342;23;20007;-90
2023/12/25 02:19:51;;;;;;;0.00;0.00;;;;;;;11.37;100.00;99740.09;6092259;23;20366;-90
2023/12/25 02:22:16;;;;;;;0.00;0.00;;;;;;;11.39;100.00;99747.72;6091022;23;20064;-88
2023/12/25 02:24:55;;;;;;;0.32;0.00;;;;;;;11.41;100.00;99746.69;6092033;23;20319;-88
2023/12/25 02:27:20;;;;;;;0.93;0.00;;;;;;;11.37;100.00;99747.84;6091822;23;20084;-88
2023/12/25 02:29:45;;;;;;;0.00;0.00;;;;;;;11.35;100.00;99754.88;6091679;23;20002;-89
2023/12/25 02:32:11;;;;;;;0.08;0.05;;;;;;;11.37;100.00;99753.00;6090282;23;20056;-88
2023/12/25 02:34:36;;;;;;;0.00;0.00;;;;;;;11.40;100.00;99759.72;6092056;23;19998;-89
2023/12/25 02:37:01;;;;;;;0.30;0.10;;;;;;;11.34;100.00;99771.31;6092173;23;20177;-89
2023/12/25 02:39:27;;;;;;;0.00;0.00;;;;;;;11.33;100.00;99756.72;6091035;23;20009;-89
2023/12/25 02:41:52;;;;;;;0.70;0.00;;;;;;;11.38;100.00;99756.41;6091277;23;20013;-89
2023/12/25 02:44:17;;;;;;;0.73;0.08;;;;;;;11.37;100.00;99765.09;6091306;23;20007;-88
2023/12/25 02:46:43;;;;;;;0.68;0.00;;;;;;;11.39;100.00;99765.78;6091039;23;20041;-88
2023/12/25 02:49:08;;;;;;;0.22;0.10;;;;;;;11.32;100.00;99768.00;6091776;23;20010;-89
2023/12/25 02:51:33;;;;;;;0.38;0.10;;;;;;;11.29;100.00;99763.03;6091586;23;20006;-89
2023/12/25 02:53:59;;;;;;;0.08;0.03;;;;;;;11.31;100.00;99766.34;6091823;23;20081;-89
2023/12/25 02:56:24;;;;;;;0.00;0.00;;;;;;;11.35;100.00;99760.03;6090058;23;20084;-90
2023/12/25 02:58:49;;;;;;;0.40;0.10;;;;;;;11.35;100.00;99767.78;6091918;23;20002;-90
2023/12/25 03:01:15;;;;;;;1.08;0.00;;;;;;;11.38;100.00;99761.56;6091670;23;20005;-89
2023/12/25 03:03:40;;;;;;;0.65;0.10;;;;;;;11.44;100.00;99759.38;6091495;23;20007;-88
2023/12/25 03:06:06;;;;;;;1.65;0.20;;;;;;;11.39;100.00;99764.06;6091860;23;20007;-89
2023/12/25 03:08:31;;;;;;;0.28;0.10;;;;;;;11.36;100.00;99753.91;6089587;23;20043;-88
2023/12/25 03:10:56;;;;;;;0.32;0.00;;;;;;;11.40;100.00;99765.69;6091394;23;20003;-89
2023/12/25 03:13:22;;;;;;;0.88;0.10;;;;;;;11.41;100.00;99757.03;6091836;23;20010;-88
2023/12/25 03:15:47;;;;;;;3.80;0.25;;;;;;;11.42;100.00;99750.09;6091280;23;20017;-89
2023/12/25 03:18:12;;;;;;;0.30;0.00;;;;;;;11.44;100.00;99751.63;6090448;23;20007;-88
2023/12/25 03:20:38;;;;;;;1.55;0.08;;;;;;;11.36;100.00;99748.75;6091920;23;19998;-89
2023/12/25 03:23:03;;;;;;;0.32;0.08;;;;;;;11.35;100.00;99760.03;6091863;23;20481;-89
2023/12/25 03:25:28;;;;;;;0.73;0.10;;;;;;;11.37;100.00;99750.41;6091014;23;20102;-89
2023/12/25 03:27:54;;;;;;;0.10;0.00;;;;;;;11.33;100.00;99757.56;6091177;23;20003;-89
2023/12/25 03:30:19;;;;;;;0.82;0.35;;;;;;;11.33;100.00;99754.97;6091215;23;20002;-88
2023/12/25 03:32:44;;;;;;;1.83;0.10;;;;;;;11.26;100.00;99779.59;6089399;23;20002;-88
2023/12/25 03:35:10;;;;;;;1.00;0.10;;;;;;;11.33;100.00;99765.31;6091649;23;20006;-88
2023/12/25 03:37:35;;;;;;;1.58;0.20;;;;;;;11.34;100.00;99755.81;6091930;23;20026;-88
2023/12/25 03:40:01;;;;;;;2.83;0.20;;;;;;;11.34;100.00;99750.66;6091674;23;20033;-89
2023/12/25 03:42:26;;;;;;;1.25;0.10;;;;;;;11.36;100.00;99753.91;6091661;23;20050;-87
2023/12/25 03:44:51;;;;;;;3.67;0.30;;;;;;;11.33;100.00;99748.97;6091241;23;20037;-88
2023/12/25 03:47:18;;;;;;;2.05;0.20;;;;;;;11.38;100.00;99756.41;6091510;23;20152;-88
2023/12/25 03:49:44;;;;;;;1.73;0.20;;;;;;;11.33;100.00;99741.22;6091505;23;20029;-89
2023/12/25 03:52:09;;;;;;;0.57;0.17;;;;;;;11.28;100.00;99751.88;6091233;23;20010;-88
2023/12/25 03:54:34;;;;;;;3.45;0.20;;;;;;;11.32;100.00;99742.19;6091502;23;20003;-88
2023/12/25 03:57:00;;;;;;;2.60;0.20;;;;;;;11.34;100.00;99755.81;6090849;23;20009;-88
2023/12/25 03:59:25;;;;;;;2.17;0.17;;;;;;;11.29;100.00;99752.72;6091051;23;20013;-88
2023/12/25 04:01:50;;;;;;;1.60;0.30;;;;;;;11.20;100.00;99751.63;6091971;23;20002;-89
2023/12/25 04:04:16;;;;;;;2.83;0.45;;;;;;;11.24;100.00;99745.31;6090979;23;20006;-89
2023/12/25 04:06:41;;;;;;;5.85;0.60;;;;;;;11.26;100.00;99738.25;6091183;23;20036;-89
2023/12/25 04:09:06;;;;;;;1.45;0.20;;;;;;;11.30;100.00;99744.03;6091159;23;20009;-88
2023/12/25 04:11:32;;;;;;;1.27;0.10;;;;;;;11.32;100.00;99742.19;6091466;23;20010;-88
2023/12/25 04:13:58;;;;;;;0.30;0.10;;;;;;;11.31;100.00;99740.50;6091102;23;20022;-88
2023/12/25 04:16:29;;;;;;;0.75;0.10;;;;;;;11.30;100.00;99736.28;6091099;23;20393;-88
2023/12/25 04:18:54;;;;;;;1.05;0.22;;;;;;;11.31;100.00;99733.59;6090996;23;20006;-88
2023/12/25 04:21:24;;;;;;;0.45;0.10;;;;;;;11.38;100.00;99726.22;6091184;23;20003;-88
2023/12/25 04:23:51;;;;;;;0.25;0.00;;;;;;;11.35;100.00;99741.94;6090793;23;20024;-88
2023/12/25 04:26:16;;;;;;;0.88;0.30;;;;;;;11.33;100.00;99751.56;6091080;23;20053;-88
2023/12/25 04:28:42;;;;;;;2.55;0.08;;;;;;;11.37;100.00;99734.09;6090960;23;20007;-88
2023/12/25 04:31:08;;;;;;;2.67;0.10;;;;;;;11.38;100.00;99748.66;6091327;23;20057;-88
2023/12/25 04:33:33;;;;;;;1.00;0.10;;;;;;;11.28;100.00;99745.91;6091159;23;20333;-88
2023/12/25 04:35:58;;;;;;;1.17;0.20;;;;;;;11.32;100.00;99752.50;6091294;23;20426;-88
2023/12/25 04:38:24;;;;;;;0.55;0.17;;;;;;;11.29;100.00;99739.78;6091274;23;20436;-89
2023/12/25 04:40:52;;;;;;;1.33;0.20;;;;;;;11.35;100.00;99753.09;6091191;23;20425;-88
2023/12/25 04:43:17;;;;;;;1.00;0.17;;;;;;;11.34;100.00;99738.56;6091093;23;20010;-87
2023/12/25 04:45:42;;;;;;;2.00;0.15;;;;;;;11.35;100.00;99741.94;6091325;23;20006;-88
2023/12/25 04:48:08;;;;;;;0.20;0.10;;;;;;;11.26;100.00;99732.28;6091148;23;20030;-88
2023/12/25 04:50:33;;;;;;;2.45;0.17;;;;;;;11.30;100.00;99747.44;6091305;23;20007;-88
2023/12/25 04:52:59;;;;;;;3.67;0.30;;;;;;;11.41;100.00;99731.19;6091174;23;20011;-88
2023/12/25 04:55:25;;;;;;;1.58;0.20;;;;;;;11.37;100.00;99734.91;6090556;23;20460;-88
2023/12/25 04:57:51;;;;;;;2.05;0.13;;;;;;;11.35;100.00;99721.28;6090854;23;20006;-88
2023/12/25 05:00:16;;;;;;;1.30;0.08;;;;;;;11.36;100.00;99741.00;6091089;23;20381;-88
2023/12/25 05:02:41;;;;;;;1.98;0.13;;;;;;;11.33;100.00;99738.66;6091015;23;20334;-88
2023/12/25 05:05:07;;;;;;;0.93;0.08;;;;;;;11.38;100.00;99725.41;6090995;23;20487;-88
2023/12/25 05:07:32;;;;;;;5.22;0.17;;;;;;;11.32;100.00;99737.00;6091300;23;20112;-88
2023/12/25 05:09:58;;;;;;;6.18;0.40;;;;;;;11.18;100.00;99739.75;6091216;23;20007;-88
2023/12/25 05:12:23;;;;;;;6.90;0.90;;;;;;;11.09;100.00;99731.69;6091561;23;20337;-88
2023/12/25 05:14:48;;;;;;;6.00;0.55;;;;;;;11.00;100.00;99726.38;6092134;23;20368;-88
2023/12/25 05:17:14;;;;;;;8.55;1.10;;;;;;;11.00;100.00;99722.06;6092060;23;20425;-88
2023/12/25 05:19:41;;;;;;;7.65;1.00;;;;;;;10.97;100.00;99739.50;6092222;23;20002;-88
2023/12/25 05:22:07;;;;;;;6.60;1.10;;;;;;;10.82;100.00;99738.81;6092326;23;20333;-88
2023/12/25 05:24:32;;;;;;;8.75;1.55;;;;;;;10.80;100.00;99732.94;6091583;23;20081;-88
2023/12/25 05:26:57;;;;;;;8.95;1.50;;;;;;;10.73;100.00;99729.97;6092280;23;20310;-88
2023/12/25 05:29:23;;;;;;;7.18;1.10;;;;;;;10.59;100.00;99748.97;6092129;23;20007;-88
2023/12/25 05:31:48;;;;;;;9.82;1.75;;;;;;;10.46;100.00;99745.56;6091918;23;20006;-88
2023/12/25 05:34:13;;;;;;;11.32;1.33;;;;;;;10.55;100.00;99747.53;6092309;23;20382;-87
2023/12/25 05:36:39;;;;;;;12.05;1.65;;;;;;;10.58;100.00;99751.66;6092210;23;19999;-88
2023/12/25 05:39:04;;;;;;;11.32;1.40;;;;;;;10.49;100.00;99745.38;6091959;23;20006;-88
2023/12/25 05:41:29;;;;;;;13.18;2.00;;;;;;;10.42;100.00;99762.22;6092234;23;19998;-87
2023/12/25 05:43:55;;;;;;;12.18;1.95;;;;;;;10.39;100.00;99752.09;6092268;23;20007;-87
2023/12/25 05:46:20;;;;;;;19.75;1.88;;;;;;;10.44;100.00;99770.69;6092170;23;20034;-88
2023/12/25 05:48:46;;;;;;;12.98;1.80;;;;;;;10.38;100.00;99755.59;6092424;23;20005;-87
2023/12/25 05:51:11;;;;;;;21.55;1.67;;;;;;;10.32;100.00;99761.19;6090707;23;20078;-88
2023/12/25 05:53:36;;;;;;;11.88;1.55;;;;;;;10.40;100.00;99764.06;6091906;23;20006;-88
2023/12/25 05:56:03;;;;;;;7.00;1.17;;;;;;;10.34;100.00;99747.25;6091992;23;20085;-88
2023/12/25 05:58:29;;;;;;;6.10;1.30;;;;;;;10.32;100.00;99745.72;6092199;23;20025;-88
2023/12/25 06:00:54;;;;;;;13.32;2.10;;;;;;;10.33;100.00;99742.19;6092275;23;20302;-88
2023/12/25 06:03:19;;;;;;;16.08;1.83;;;;;;;10.30;100.00;99755.28;6091910;23;20013;-89
2023/12/25 06:05:45;;;;;;;16.40;2.13;;;;;;;10.26;100.00;99757.22;6092297;23;19998;-87
2023/12/25 06:08:10;;;;;;;15.85;1.60;;;;;;;10.28;100.00;99756.22;6092287;23;20009;-88
2023/12/25 06:10:35;;;;;;;14.30;1.75;;;;;;;10.24;100.00;99762.50;6091988;23;20038;-87
2023/12/25 06:13:01;;;;;;;11.70;1.92;;;;;;;10.26;100.00;99762.38;6092169;23;20318;-88
2023/12/25 06:15:26;;;;;;;15.48;1.65;;;;;;;10.39;100.00;99772.75;6091883;23;20363;-88
2023/12/25 06:17:51;;;;;;;10.95;1.75;;;;;;;10.36;100.00;99760.03;6091958;23;20334;-88
2023/12/25 06:20:17;;;;;;;8.90;1.48;;;;;;;10.39;100.00;99757.25;6092503;23;20319;-88
2023/12/25 06:22:42;;;;;;;16.27;2.20;;;;;;;10.40;100.00;99748.59;6092338;23;20085;-88
2023/12/25 06:25:08;;;;;;;10.05;1.35;;;;;;;10.39;100.00;99757.25;6091008;23;20010;-88
2023/12/25 06:27:33;;;;;;;5.47;0.80;;;;;;;10.47;100.00;99754.97;6091942;23;20333;-88
2023/12/25 06:29:58;;;;;;;7.43;0.95;;;;;;;10.46;100.00;99743.00;6092510;23;20013;-88
2023/12/25 06:32:24;;;;;;;7.05;1.35;;;;;;;10.50;100.00;99757.34;6092238;23;20006;-88
2023/12/25 06:34:49;;;;;;;8.15;1.13;;;;;;;10.38;100.00;99750.44;6092356;23;20010;-89
2023/12/25 06:37:14;;;;;;;4.88;0.65;;;;;;;10.48;100.00;99766.94;6092104;23;20003;-88
2023/12/25 06:39:40;;;;;;;11.60;2.60;;;;;;;10.47;100.00;99771.28;6090444;23;20055;-88
2023/12/25 06:42:05;;;;;;;12.73;1.27;;;;;;;10.54;100.00;99771.69;6091691;23;20007;-89
2023/12/25 06:44:31;;;;;;;8.80;1.15;;;;;;;10.54;100.00;99771.69;6091868;23;20006;-88
2023/12/25 06:46:56;;;;;;;11.45;1.88;;;;;;;10.60;100.00;99765.28;6091826;23;20424;-88
2023/12/25 06:49:21;;;;;;;6.93;0.82;;;;;;;10.60;100.00;99781.59;6091970;23;20021;-88
2023/12/25 06:51:47;;;;;;;11.55;1.42;;;;;;;10.54;100.00;99794.91;6091950;23;20445;-88
2023/12/25 06:54:12;;;;;;;14.43;1.67;;;;;;;10.65;100.00;99787.25;6091657;23;20318;-88
2023/12/25 06:56:38;;;;;;;13.48;1.90;;;;;;;10.69;100.00;99790.47;6092275;23;20014;-87
2023/12/25 06:59:03;;;;;;;11.05;1.20;;;;;;;10.66;100.00;99791.50;6092054;23;20007;-88
2023/12/25 07:01:28;;;;;;;16.80;1.98;;;;;;;10.67;100.00;99782.81;6092083;23;20009;-88
2023/12/25 07:03:54;;;;;;;10.48;1.45;;;;;;;10.65;100.00;99792.41;6091670;23;20085;-88
2023/12/25 07:06:19;;;;;;;9.32;1.15;;;;;;;10.62;100.00;99792.63;6091738;23;20384;-88
2023/12/25 07:08:45;;;;;;;8.02;1.10;;;;;;;10.66;100.00;99798.44;6091234;23;20006;-88
2023/12/25 07:11:11;;;;;;;9.98;3.08;;;;;;;10.67;100.00;99789.75;6089859;23;20006;-87
2023/12/25 07:13:37;;;;;;;15.55;1.63;;;;;;;10.70;100.00;99797.28;6091475;23;20007;-88
2023/12/25 07:16:06;;;;;;;13.35;1.67;;;;;;;10.76;100.00;99801.22;6089499;23;20081;-88
2023/12/25 07:18:31;;;;;;;10.75;2.50;;;;;;;10.71;100.00;99812.66;6091479;23;20014;-88
2023/12/25 07:20:56;;;;;;;15.80;1.77;;;;;;;10.67;100.00;99824.13;6091585;23;20006;-87
2023/12/25 07:23:22;;;;;;;14.98;2.50;;;;;;;10.68;100.00;99820.63;6090213;23;20010;-89
2023/12/25 07:25:47;;;;;;;15.48;2.58;;;;;;;10.67;100.00;99829.28;6088455;23;20521;-92
2023/12/25 07:28:13;;;;;;;13.05;2.40;;;;;;;10.68;100.00;99832.69;6090917;23;20689;-89
2023/12/25 07:30:38;;;;;;;17.88;2.03;;;;;;;10.65;100.00;99825.16;6089903;23;20429;-85
2023/12/25 07:33:04;;;;;;;15.93;2.13;;;;;;;10.63;100.00;99821.84;6091997;23;20002;-89
2023/12/25 07:35:29;;;;;;;15.13;3.65;;;;;;;10.59;100.00;99826.41;6089571;23;20010;-88
2023/12/25 07:37:54;;;;;;;23.35;3.55;;;;;;;10.62;100.00;99821.03;6091351;23;20009;-88
2023/12/25 07:40:20;;;;;;;14.38;2.80;;;;;;;10.64;100.00;99821.75;6091885;23;20307;-87
2023/12/25 07:42:45;;;;;;;11.55;2.08;;;;;;;10.63;100.00;99814.94;6091678;23;20331;-87
2023/12/25 07:45:14;;;;;;;27.92;2.40;;;;;;;10.58;100.00;99809.25;6091495;23;20006;-88
2023/12/25 07:47:39;;;;;;;23.08;3.05;;;;;;;10.54;100.00;99809.59;6091622;23;20005;-88
2023/12/25 07:50:05;;;;;;;17.08;3.83;;;;;;;10.52;100.00;99799.34;6091773;23;20003;-89
2023/12/25 07:52:31;;;;;;;19.15;2.83;;;;;;;10.56;100.00;99810.28;6091870;23;20003;-89
2023/12/25 07:54:56;;;;;;;19.00;2.45;;;;;;;10.56;100.00;99805.97;6090742;23;20326;-89
2023/12/25 07:57:22;;;;;;;17.02;2.92;;;;;;;10.51;100.00;99813.19;6091714;23;20007;-90
2023/12/25 07:59:48;;;;;;;30.23;3.40;;;;;;;10.62;100.00;99818.44;6090225;23;20057;-89
2023/12/25 08:02:15;;;;;;;22.95;3.20;;;;;;;10.60;100.00;99815.13;6090206;23;20018;-89
2023/12/25 08:04:40;;;;;;;22.02;3.42;;;;;;;10.61;100.00;99814.22;6089084;23;20026;-91
2023/12/25 08:07:05;;;;;;;26.92;3.63;;;;;;;10.64;100.00;99814.00;6091321;23;20025;-91
2023/12/25 08:09:31;;;;;;;21.02;4.80;;;;;;;10.69;100.00;99821.44;6091191;23;20003;-91
2023/12/25 08:11:56;;;;;;;21.73;3.50;;;;;;;10.61;100.00;99814.22;6091674;23;20009;-90
2023/12/25 08:14:22;;;;;;;25.77;3.30;;;;;;;10.60;100.00;99816.91;6091123;23;20080;-91
2023/12/25 08:16:47;;;;;;;22.48;3.13;;;;;;;10.65;100.00;99820.00;6091149;23;20002;-89
2023/12/25 08:19:13;;;;;;;28.15;4.80;;;;;;;10.64;100.00;99816.59;6090951;23;20014;-90
2023/12/25 08:21:40;;;;;;;23.65;3.75;;;;;;;10.61;100.00;99824.53;6091262;23;20006;-90
2023/12/25 08:24:05;;;;;;;30.35;4.15;;;;;;;10.62;100.00;99815.84;6090302;23;20010;-87
2023/12/25 08:26:31;;;;;;;26.13;3.97;;;;;;;10.62;100.00;99815.84;6091211;23;20002;-91
2023/12/25 08:28:57;;;;;;;24.60;4.35;;;;;;;10.61;100.00;99819.38;6091577;23;20085;-90
2023/12/25 08:31:22;;;;;;;29.90;3.60;;;;;;;10.67;100.00;99823.28;6091351;23;20048;-89
2023/12/25 08:33:48;;;;;;;23.90;4.10;;;;;;;10.66;100.00;99809.56;6090241;23;20066;-89
2023/12/25 08:36:13;;;;;;;21.20;3.30;;;;;;;10.61;100.00;99813.41;6091064;23;20006;-89
2023/12/25 08:38:39;;;;;;;29.08;4.55;;;;;;;10.60;100.00;99822.88;6090780;23;20003;-90
2023/12/25 08:41:05;;;;;;;23.33;3.65;;;;;;;10.62;100.00;99820.19;6089548;23;20322;-90
2023/12/25 08:43:30;;;;;;;16.63;3.03;;;;;;;10.66;100.00;99827.63;6091130;23;20010;-89
2023/12/25 08:45:56;;;;;;;22.42;3.78;;;;;;;10.58;100.00;99824.72;6091819;23;20021;-89
2023/12/25 08:48:21;;;;;;;22.60;3.60;;;;;;;10.56;100.00;99821.44;6093337;23;20018;-91
2023/12/25 08:50:47;;;;;;;28.70;3.13;;;;;;;10.54;100.00;99823.31;6095281;23;20318;-90
2023/12/25 08:53:12;;;;;;;20.48;3.97;;;;;;;10.53;100.00;99821.63;6093833;23;20577;-91
2023/12/25 08:55:37;;;;;;;25.40;3.25;;;;;;;10.59;100.00;99820.41;6094099;23;19998;-88
2023/12/25 08:58:03;;;;;;;33.55;7.47;;;;;;;10.56;100.00;99820.59;6093573;23;20006;-89
2023/12/25 09:00:29;;;;;;;23.38;3.30;;;;;;;10.55;100.00;99834.44;6094463;23;20043;-88
2023/12/25 09:02:55;;;;;;;21.67;3.20;;;;;;;10.51;100.00;99823.50;6093523;23;20003;-87
2023/12/25 09:05:21;;;;;;;19.42;3.00;;;;;;;10.62;100.00;99840.84;6093249;23;20052;-87
2023/12/25 09:07:46;;;;;;;20.10;3.15;;;;;;;10.60;100.00;99838.34;6094057;23;20006;-87
2023/12/25 09:10:11;;;;;;;25.42;3.40;;;;;;;10.64;100.00;99842.41;6093938;23;20006;-88
2023/12/25 09:12:38;;;;;;;18.17;3.10;;;;;;;10.63;100.00;99840.75;6094358;23;20029;-87
2023/12/25 09:15:04;;;;;;;15.95;3.17;;;;;;;10.66;100.00;99839.72;6092048;23;20144;-87
2023/12/25 09:17:30;;;;;;;20.38;3.35;;;;;;;10.73;100.00;99832.38;6094101;23;20003;-90
2023/12/25 09:19:55;;;;;;;16.38;2.35;;;;;;;10.70;100.00;99839.41;6093210;23;20013;-89
2023/12/25 09:22:23;;;;;;;17.60;2.92;;;;;;;10.67;100.00;99844.75;6094304;23;20085;-88
2023/12/25 09:24:50;;;;;;;15.82;2.67;;;;;;;10.74;100.00;99844.34;6093072;23;20037;-88
2023/12/25 09:27:15;;;;;;;21.63;3.72;;;;;;;10.70;100.00;99839.41;6093746;23;19998;-89
2023/12/25 09:29:41;;;;;;;16.88;2.78;;;;;;;10.61;100.00;99831.47;6093741;23;20013;-90
2023/12/25 09:32:06;;;;;;;16.42;2.58;;;;;;;10.63;100.00;99848.50;6092706;23;20010;-89
2023/12/25 09:34:32;;;;;;;20.33;2.20;;;;;;;10.68;100.00;99820.63;6092947;23;19999;-87
2023/12/25 09:36:58;;;;;;;18.98;2.17;;;;;;;10.61;100.00;99829.69;6094075;23;19999;-90
2023/12/25 09:39:23;;;;;;;15.65;2.78;;;;;;;10.59;100.00;99835.91;6091097;23;20006;-88
2023/12/25 09:41:49;;;;;;;22.05;3.00;;;;;;;10.56;100.00;99836.94;6091879;23;20384;-88
2023/12/25 09:44:14;;;;;;;14.45;2.25;;;;;;;10.61;100.00;99836.63;6091854;23;20006;-87
2023/12/25 09:46:40;;;;;;;17.45;2.42;;;;;;;10.64;100.00;99850.13;6092046;23;20013;-88
2023/12/25 09:49:05;;;;;;;20.50;2.13;;;;;;;10.62;100.00;99846.00;6090785;23;20002;-87
2023/12/25 09:51:33;;;;;;;19.25;2.97;;;;;;;10.71;100.00;99855.72;6092320;23;20025;-87
2023/12/25 09:53:58;;;;;;;13.63;2.50;;;;;;;10.75;100.00;99838.25;6093568;23;20281;-87
2023/12/25 09:56:26;;;;;;;20.60;3.42;;;;;;;10.71;100.00;99841.06;6092804;23;20006;-88
2023/12/25 09:58:53;;;;;;;16.33;2.80;;;;;;;10.71;100.00;99835.88;6091574;23;20003;-88
2023/12/25 10:01:20;;;;;;;17.77;3.67;;;;;;;10.83;100.00;99844.56;6091574;23;20041;-88
2023/12/25 10:03:46;;;;;;;18.38;2.25;;;;;;;10.87;100.00;99855.50;6090646;23;20006;-87
2023/12/25 10:06:11;;;;;;;19.00;2.65;;;;;;;10.82;100.00;99844.66;6091232;23;20007;-87
2023/12/25 10:08:38;;;;;;;15.52;2.08;;;;;;;10.89;100.00;99853.63;6091491;23;20479;-88
2023/12/25 10:11:04;;;;;;;20.70;2.50;;;;;;;10.91;100.00;99847.44;6091160;23;20021;-88
2023/12/25 10:13:31;;;;;;;16.92;2.45;;;;;;;11.01;100.00;99852.81;6091586;23;20006;-89
2023/12/25 10:15:56;;;;;;;13.48;2.10;;;;;;;11.05;100.00;99863.75;6091795;23;20009;-90
2023/12/25 10:18:22;;;;;;;22.35;2.25;;;;;;;11.11;100.00;99864.13;6090813;23;20017;-89
2023/12/25 10:20:57;;;;;;;13.05;2.20;;;;;;;11.11;100.00;99865.91;6091955;23;20009;-88
2023/12/25 10:23:30;;;;;;;20.15;2.30;;;;;;;11.25;100.00;99864.97;6091116;23;20098;-87
2023/12/25 10:25:58;;;;;;;22.35;3.22;;;;;;;11.33;100.00;99862.66;6090545;23;20056;-90
2023/12/25 10:28:29;;;;;;;18.55;2.15;;;;;;;11.35;100.00;99850.47;6091419;23;20008;-88
2023/12/25 10:31:06;;;;;;;19.38;2.95;;;;;;;11.32;100.00;99877.34;6092060;23;20038;-88
2023/12/25 10:33:32;;;;;;;11.02;2.28;;;;;;;11.38;100.00;99870.09;6091095;23;20087;-88
2023/12/25 10:36:03;;;;;;;12.98;1.95;;;;;;;11.43;100.00;99863.66;6091535;23;20002;-88
2023/12/25 10:38:31;;;;;;;15.97;2.37;;;;;;;11.42;100.00;99884.47;6091393;23;19998;-87
2023/12/25 10:40:56;;;;;;;17.30;2.03;;;;;;;11.42;100.00;99876.72;6091830;23;20033;-87
2023/12/25 10:43:24;;;;;;;16.58;3.08;;;;;;;11.36;100.00;99875.34;6091655;23;20009;-88
2023/12/25 10:45:53;;;;;;;10.80;1.58;;;;;;;11.41;100.00;99870.72;6091440;23;20373;-86
2023/12/25 10:48:20;;;;;;;12.73;2.05;;;;;;;11.38;100.00;99860.56;6090446;23;20065;-85
2023/12/25 10:50:47;;;;;;;9.85;1.80;;;;;;;11.49;100.00;99865.00;6091625;23;20350;-86
2023/12/25 10:53:16;;;;;;;12.68;1.80;;;;;;;11.37;100.00;99861.53;6092221;23;20052;-87
2023/12/25 10:55:43;;;;;;;17.27;1.80;;;;;;;11.39;100.00;99866.56;6090541;23;20006;-88
2023/12/25 10:58:11;;;;;;;11.20;1.77;;;;;;;11.36;100.00;99865.03;6090545;23;20325;-86
2023/12/25 11:00:40;;;;;;;8.00;1.70;;;;;;;11.40;100.00;99869.06;6091010;23;20030;-88
2023/12/25 11:03:06;;;;;;;10.02;1.75;;;;;;;11.49;100.00;99867.59;6090507;23;20026;-88
2023/12/25 11:05:32;;;;;;;14.35;1.88;;;;;;;11.42;100.00;99869.78;6090965;23;20034;-87
2023/12/25 11:07:58;;;;;;;11.43;1.35;;;;;;;11.44;100.00;99862.75;6091523;23;20007;-87
2023/12/25 11:10:30;;;;;;;7.88;2.30;;;;;;;11.46;100.00;99860.03;6090696;23;20010;-88
2023/12/25 11:12:56;;;;;;;8.18;0.90;;;;;;;11.51;100.00;99855.38;6091042;23;20100;-86
2023/12/25 11:15:23;;;;;;;8.15;2.53;;;;;;;11.54;100.00;99863.75;6091378;23;20341;-88